createdAt,value
2023-03-18T00:00:09.886Z,3.89
2023-03-18T00:02:58.345Z,3.89
2023-03-18T00:05:26.347Z,3.86
2023-03-18T00:07:54.430Z,3.86
2023-03-18T00:10:22.908Z,3.86
2023-03-18T00:12:50.932Z,3.85
2023-03-18T00:15:19.821Z,3.84
2023-03-18T00:17:48.726Z,3.83
2023-03-18T00:20:18.422Z,3.83
2023-03-18T00:22:46.876Z,3.83
2023-03-18T00:25:15.555Z,3.82
2023-03-18T00:27:43.581Z,3.81
2023-03-18T00:30:12.522Z,3.80
2023-03-18T00:32:41.765Z,3.78
2023-03-18T00:35:10.897Z,3.76
2023-03-18T00:37:39.931Z,3.76
2023-03-18T00:40:10.343Z,3.75
2023-03-18T00:42:40.328Z,3.74
2023-03-18T00:45:10.478Z,3.71
2023-03-18T00:47:38.708Z,3.68
2023-03-18T00:50:08.526Z,3.67
2023-03-18T00:52:37.752Z,3.66
2023-03-18T00:55:07.077Z,3.64
2023-03-18T00:57:35.655Z,3.61
2023-03-18T01:00:07.350Z,3.60
2023-03-18T01:02:35.944Z,3.58
2023-03-18T01:05:05.150Z,3.56
2023-03-18T01:07:33.140Z,3.54
2023-03-18T01:10:01.569Z,3.51
2023-03-18T01:12:30.900Z,3.50
2023-03-18T01:14:59.284Z,3.48
2023-03-18T01:17:27.373Z,3.47
2023-03-18T01:19:55.438Z,3.47
2023-03-18T01:22:24.468Z,3.48
2023-03-18T01:24:52.709Z,3.48
2023-03-18T01:27:23.516Z,3.49
2023-03-18T01:29:51.828Z,3.48
2023-03-18T01:32:22.553Z,3.45
2023-03-18T01:34:50.714Z,3.46
2023-03-18T01:37:19.761Z,3.45
2023-03-18T01:39:49.714Z,3.41
2023-03-18T01:42:23.400Z,3.37
2023-03-18T01:45:10.148Z,3.32
2023-03-18T01:47:38.484Z,3.27
2023-03-18T01:50:06.604Z,3.25
2023-03-18T01:52:36.470Z,3.21
2023-03-18T01:55:07.276Z,3.18
2023-03-18T01:57:35.949Z,3.16
2023-03-18T02:00:05.717Z,3.16
2023-03-18T02:02:42.746Z,3.14
2023-03-18T02:05:13.503Z,3.13
2023-03-18T02:07:44.532Z,3.13
2023-03-18T02:10:14.961Z,3.12
2023-03-18T02:12:45.627Z,3.09
2023-03-18T02:15:18.449Z,3.08
2023-03-18T02:17:51.841Z,3.07
2023-03-18T02:20:39.461Z,3.05
2023-03-18T02:23:27.743Z,3.01
2023-03-18T02:26:11.970Z,3.00
2023-03-18T02:28:42.845Z,2.99
2023-03-18T02:31:13.725Z,2.97
2023-03-18T02:33:43.412Z,2.95
2023-03-18T02:36:17.796Z,2.92
2023-03-18T02:38:47.201Z,2.89
2023-03-18T02:41:27.319Z,2.86
2023-03-18T02:43:56.664Z,2.83
2023-03-18T02:46:38.452Z,2.80
2023-03-18T02:49:07.879Z,2.79
2023-03-18T02:51:37.313Z,2.78
2023-03-18T02:54:13.396Z,2.77
2023-03-18T02:56:42.714Z,2.76
2023-03-18T02:59:11.707Z,2.75
2023-03-18T03:01:41.205Z,2.74
2023-03-18T03:04:09.189Z,2.71
2023-03-18T03:06:37.191Z,2.70
2023-03-18T03:09:07.246Z,2.70
2023-03-18T03:11:36.604Z,2.69
2023-03-18T03:14:12.989Z,2.67
2023-03-18T03:16:41.527Z,2.64
2023-03-18T03:19:09.937Z,2.63
2023-03-18T03:21:38.071Z,2.62
2023-03-18T03:24:06.992Z,2.62
2023-03-18T03:26:35.200Z,2.60
2023-03-18T03:29:04.667Z,2.59
2023-03-18T03:31:33.191Z,2.57
2023-03-18T03:34:01.265Z,2.57
2023-03-18T03:36:29.418Z,2.56
2023-03-18T03:38:58.120Z,2.54
2023-03-18T03:41:27.660Z,2.52
2023-03-18T03:43:55.635Z,2.51
2023-03-18T03:46:23.585Z,2.48
2023-03-18T03:48:51.632Z,2.46
2023-03-18T03:51:19.716Z,2.44
2023-03-18T03:53:47.960Z,2.42
2023-03-18T03:56:16.402Z,2.42
2023-03-18T03:58:45.861Z,2.40
2023-03-18T04:01:14.563Z,2.38
2023-03-18T04:03:43.570Z,2.37
2023-03-18T04:06:12.248Z,2.35
2023-03-18T04:08:46.261Z,2.33
2023-03-18T04:11:14.227Z,2.32
2023-03-18T04:13:42.774Z,2.31
2023-03-18T04:16:10.675Z,2.31
2023-03-18T04:18:40.003Z,2.30
2023-03-18T04:21:08.511Z,2.30
2023-03-18T04:23:49.759Z,2.28
2023-03-18T04:26:18.338Z,2.28
2023-03-18T04:28:47.156Z,2.27
2023-03-18T04:31:17.140Z,2.26
2023-03-18T04:33:45.697Z,2.24
2023-03-18T04:36:14.166Z,2.23
2023-03-18T04:38:43.135Z,2.22
2023-03-18T04:41:11.989Z,2.21
2023-03-18T04:43:40.575Z,2.19
2023-03-18T04:46:11.261Z,2.17
2023-03-18T04:48:39.820Z,2.16
2023-03-18T04:51:09.472Z,2.16
2023-03-18T04:53:38.909Z,2.15
2023-03-18T04:56:08.890Z,2.15
2023-03-18T04:58:45.734Z,2.13
2023-03-18T05:01:18.349Z,2.12
2023-03-18T05:03:46.372Z,2.11
2023-03-18T05:06:23.257Z,2.10
2023-03-18T05:09:05.686Z,2.09
2023-03-18T05:11:35.288Z,2.07
2023-03-18T05:14:13.997Z,2.06
2023-03-18T05:16:45.683Z,2.06
2023-03-18T05:19:14.728Z,2.06
2023-03-18T05:22:02.693Z,2.04
2023-03-18T05:24:31.216Z,2.03
2023-03-18T05:27:00.703Z,2.03
2023-03-18T05:29:33.995Z,2.03
2023-03-18T05:32:18.100Z,2.02
2023-03-18T05:34:47.330Z,2.02
2023-03-18T05:37:15.986Z,2.01
2023-03-18T05:39:49.906Z,2.01
2023-03-18T05:42:19.814Z,2.01
2023-03-18T05:44:48.424Z,2.01
2023-03-18T05:47:27.344Z,2.02
2023-03-18T05:50:13.502Z,2.02
2023-03-18T05:52:43.028Z,2.02
2023-03-18T05:55:17.308Z,2.03
2023-03-18T05:57:46.852Z,2.04
2023-03-18T06:00:15.961Z,2.05
2023-03-18T06:02:44.942Z,2.05
2023-03-18T06:05:13.870Z,2.06
2023-03-18T06:07:41.739Z,2.08
2023-03-18T06:10:10.717Z,2.10
2023-03-18T06:12:39.834Z,2.12
2023-03-18T06:15:08.730Z,2.15
2023-03-18T06:17:36.779Z,2.17
2023-03-18T06:20:05.294Z,2.19
2023-03-18T06:22:33.244Z,2.22
2023-03-18T06:25:01.332Z,2.25
2023-03-18T06:27:29.639Z,2.27
2023-03-18T06:30:02.771Z,2.31
2023-03-18T06:32:31.139Z,2.34
2023-03-18T06:35:00.137Z,2.38
2023-03-18T06:37:28.913Z,2.43
2023-03-18T06:39:56.871Z,2.48
2023-03-18T06:42:25.523Z,2.53
2023-03-18T06:45:05.926Z,2.59
2023-03-18T06:47:44.649Z,2.66
2023-03-18T06:50:13.763Z,2.71
2023-03-18T06:52:42.451Z,2.76
2023-03-18T06:55:13.146Z,2.82
2023-03-18T06:57:43.517Z,2.88
2023-03-18T07:00:11.985Z,2.93
2023-03-18T07:02:42.056Z,2.99
2023-03-18T07:05:12.851Z,3.05
2023-03-18T07:07:42.130Z,3.11
2023-03-18T07:10:16.858Z,3.16
2023-03-18T07:12:44.799Z,3.21
2023-03-18T07:15:12.973Z,3.27
2023-03-18T07:17:41.391Z,3.32
2023-03-18T07:20:10.270Z,3.38
2023-03-18T07:22:38.337Z,3.45
2023-03-18T07:25:07.758Z,3.53
2023-03-18T07:27:37.568Z,3.61
2023-03-18T07:30:05.824Z,3.69
2023-03-18T07:32:35.359Z,3.79
2023-03-18T07:35:05.880Z,3.88
2023-03-18T07:37:33.917Z,3.98
2023-03-18T07:40:01.898Z,4.07
2023-03-18T07:42:29.843Z,4.15
2023-03-18T07:44:58.282Z,4.23
2023-03-18T07:47:26.361Z,4.31
2023-03-18T07:49:54.390Z,4.38
2023-03-18T07:52:22.306Z,4.45
2023-03-18T07:54:50.532Z,4.51
2023-03-18T07:57:19.127Z,4.58
2023-03-18T07:59:47.264Z,4.63
2023-03-18T08:02:16.064Z,4.70
2023-03-18T08:04:44.261Z,4.77
2023-03-18T08:07:12.934Z,4.84
2023-03-18T08:09:41.093Z,4.90
2023-03-18T08:12:09.294Z,4.97
2023-03-18T08:14:37.352Z,5.04
2023-03-18T08:17:05.452Z,5.10
2023-03-18T08:19:33.501Z,5.16
2023-03-18T08:22:01.492Z,5.24
2023-03-18T08:24:30.079Z,5.30
2023-03-18T08:26:58.043Z,5.37
2023-03-18T08:29:26.031Z,5.43
2023-03-18T08:31:54.572Z,5.50
2023-03-18T08:34:23.519Z,5.56
2023-03-18T08:36:52.198Z,5.62
2023-03-18T08:39:21.114Z,5.70
2023-03-18T08:41:49.264Z,5.76
2023-03-18T08:44:18.058Z,5.82
2023-03-18T08:46:46.080Z,5.88
2023-03-18T08:49:14.156Z,5.94
2023-03-18T08:51:42.302Z,6.01
2023-03-18T08:54:10.596Z,6.07
2023-03-18T08:56:38.808Z,6.14
2023-03-18T08:59:07.325Z,6.19
2023-03-18T09:01:35.402Z,6.25
2023-03-18T09:04:03.548Z,6.31
2023-03-18T09:06:31.435Z,6.36
2023-03-18T09:08:59.336Z,6.43
2023-03-18T09:11:28.052Z,6.49
2023-03-18T09:13:55.959Z,6.56
2023-03-18T09:16:24.580Z,6.61
2023-03-18T09:18:52.713Z,6.67
2023-03-18T09:21:20.654Z,6.73
2023-03-18T09:23:49.774Z,6.79
2023-03-18T09:26:17.755Z,6.86
2023-03-18T09:28:45.759Z,6.92
2023-03-18T09:31:15.549Z,6.99
2023-03-18T09:33:43.873Z,7.05
2023-03-18T09:36:11.804Z,7.12
2023-03-18T09:38:39.838Z,7.18
2023-03-18T09:41:18.613Z,7.24
2023-03-18T09:43:49.417Z,7.32
2023-03-18T09:46:20.313Z,7.38
2023-03-18T09:48:58.150Z,7.44
2023-03-18T09:51:38.140Z,7.51
2023-03-18T09:54:11.006Z,7.57
2023-03-18T09:56:39.622Z,7.64
2023-03-18T09:59:16.922Z,7.71
2023-03-18T10:01:46.993Z,7.78
2023-03-18T10:04:18.592Z,7.85
2023-03-18T10:06:49.056Z,7.93
2023-03-18T10:09:21.121Z,8.00
2023-03-18T10:11:50.476Z,8.09
2023-03-18T10:14:21.341Z,8.16
2023-03-18T10:16:49.280Z,8.23
2023-03-18T10:19:17.335Z,8.29
2023-03-18T10:21:45.589Z,8.36
2023-03-18T10:24:26.332Z,8.43
2023-03-18T10:27:00.304Z,8.50
2023-03-18T10:29:34.249Z,8.57
2023-03-18T10:32:05.230Z,8.64
2023-03-18T10:34:46.269Z,8.71
2023-03-18T10:37:19.191Z,8.77
2023-03-18T10:39:49.526Z,8.84
2023-03-18T10:42:26.563Z,8.90
2023-03-18T10:44:56.124Z,8.98
2023-03-18T10:47:29.268Z,9.04
2023-03-18T10:50:02.733Z,9.09
2023-03-18T10:52:37.447Z,9.16
2023-03-18T10:55:14.290Z,9.23
2023-03-18T10:57:42.437Z,9.29
2023-03-18T11:00:30.247Z,9.34
2023-03-18T11:02:58.713Z,9.41
2023-03-18T11:05:31.960Z,9.47
2023-03-18T11:08:02.029Z,9.53
2023-03-18T11:10:34.747Z,9.60
2023-03-18T11:13:03.449Z,9.66
2023-03-18T11:15:36.995Z,9.72
2023-03-18T11:18:06.194Z,9.78
2023-03-18T11:20:45.444Z,9.84
2023-03-18T11:23:18.294Z,9.91
2023-03-18T11:25:47.062Z,9.96
2023-03-18T11:28:23.319Z,10.01
2023-03-18T11:30:54.995Z,10.07
2023-03-18T11:33:29.779Z,10.12
2023-03-18T11:35:59.083Z,10.18
2023-03-18T11:38:29.114Z,10.24
2023-03-18T11:41:23.106Z,10.29
2023-03-18T11:44:01.361Z,10.35
2023-03-18T11:46:36.246Z,10.42
2023-03-18T11:49:04.631Z,10.47
2023-03-18T11:51:32.690Z,10.52
2023-03-18T11:54:03.613Z,10.57
2023-03-18T11:56:38.636Z,10.62
2023-03-18T11:59:24.752Z,10.68
2023-03-18T12:02:11.290Z,10.73
2023-03-18T12:04:39.442Z,10.79
2023-03-18T12:07:13.681Z,10.84
2023-03-18T12:10:09.709Z,10.89
2023-03-18T12:12:40.703Z,10.93
2023-03-18T12:15:18.551Z,10.98
2023-03-18T12:17:59.864Z,11.02
2023-03-18T12:20:46.825Z,11.06
2023-03-18T12:23:30.122Z,11.10
2023-03-18T12:26:02.078Z,11.16
2023-03-18T12:28:47.450Z,11.21
2023-03-18T12:31:35.312Z,11.27
2023-03-18T12:34:04.291Z,11.32
2023-03-18T12:36:50.893Z,11.38
2023-03-18T12:39:24.888Z,11.42
2023-03-18T12:42:10.331Z,11.47
2023-03-18T12:44:57.957Z,11.53
2023-03-18T12:47:29.762Z,11.59
2023-03-18T12:49:59.359Z,11.63
2023-03-18T12:52:30.432Z,11.68
2023-03-18T12:55:07.741Z,11.73
2023-03-18T12:57:38.569Z,11.78
2023-03-18T13:00:10.555Z,11.82
2023-03-18T13:02:43.767Z,11.87
2023-03-18T13:05:20.983Z,11.93
2023-03-18T13:08:10.594Z,11.98
2023-03-18T13:10:38.640Z,12.04
2023-03-18T13:13:08.302Z,12.09
2023-03-18T13:15:43.063Z,12.14
2023-03-18T13:18:17.104Z,12.19
2023-03-18T13:20:46.594Z,12.25
2023-03-18T13:23:17.972Z,12.30
2023-03-18T13:25:45.934Z,12.36
2023-03-18T13:28:19.773Z,12.40
2023-03-18T13:30:54.102Z,12.46
2023-03-18T13:33:25.041Z,12.51
2023-03-18T13:36:25.571Z,12.56
2023-03-18T13:39:17.125Z,12.62
2023-03-18T13:41:59.779Z,12.67
2023-03-18T13:44:42.551Z,12.76
2023-03-18T13:47:16.682Z,12.85
2023-03-18T13:49:44.945Z,12.92
2023-03-18T13:52:31.858Z,12.99
2023-03-18T13:55:03.731Z,13.06
2023-03-18T13:57:33.769Z,13.12
2023-03-18T14:00:14.747Z,13.18
2023-03-18T14:02:45.744Z,13.24
2023-03-18T14:05:32.368Z,13.30
2023-03-18T14:08:05.336Z,13.35
2023-03-18T14:10:33.435Z,13.41
2023-03-18T14:13:21.281Z,13.46
2023-03-18T14:15:49.286Z,13.51
2023-03-18T14:18:27.815Z,13.55
2023-03-18T14:20:59.855Z,13.60
2023-03-18T14:23:33.266Z,13.64
2023-03-18T14:26:08.707Z,13.68
2023-03-18T14:28:56.613Z,13.72
2023-03-18T14:31:49.310Z,13.77
2023-03-18T14:34:17.284Z,13.82
2023-03-18T14:36:49.223Z,13.87
2023-03-18T14:39:19.276Z,13.91
2023-03-18T14:41:48.869Z,13.95
2023-03-18T14:44:17.528Z,14.00
2023-03-18T14:46:46.191Z,14.05
2023-03-18T14:49:33.194Z,14.09
2023-03-18T14:52:02.775Z,14.15
2023-03-18T14:54:34.955Z,14.20
2023-03-18T14:57:04.360Z,14.24
2023-03-18T14:59:32.388Z,14.29
2023-03-18T15:02:02.421Z,14.35
2023-03-18T15:04:30.539Z,14.39
2023-03-18T15:07:01.436Z,14.45
2023-03-18T15:09:31.249Z,14.48
2023-03-18T15:11:59.271Z,14.51
2023-03-18T15:14:30.107Z,14.54
2023-03-18T15:17:04.132Z,14.57
2023-03-18T15:19:32.765Z,14.59
2023-03-18T15:22:06.022Z,14.60
2023-03-18T15:24:34.265Z,14.62
2023-03-18T15:27:07.114Z,14.63
2023-03-18T15:29:43.981Z,14.64
2023-03-18T15:32:18.107Z,14.63
2023-03-18T15:34:53.116Z,14.65
2023-03-18T15:37:30.773Z,14.65
2023-03-18T15:40:16.265Z,14.66
2023-03-18T15:42:45.601Z,14.66
2023-03-18T15:45:19.935Z,14.66
2023-03-18T15:47:48.421Z,14.66
2023-03-18T15:50:22.589Z,14.65
2023-03-18T15:53:00.978Z,14.65
2023-03-18T15:55:31.440Z,14.63
2023-03-18T15:58:00.283Z,14.63
2023-03-18T16:00:28.814Z,14.61
2023-03-18T16:02:56.810Z,14.58
2023-03-18T16:05:26.683Z,14.54
2023-03-18T16:07:55.015Z,14.50
2023-03-18T16:10:23.940Z,14.44
2023-03-18T16:12:53.770Z,14.38
2023-03-18T16:15:22.911Z,14.31
2023-03-18T16:17:52.829Z,14.21
2023-03-18T16:20:26.228Z,14.09
2023-03-18T16:22:54.508Z,13.96
2023-03-18T16:25:23.940Z,13.83
2023-03-18T16:27:54.293Z,13.72
2023-03-18T16:30:24.653Z,13.61
2023-03-18T16:32:53.579Z,13.49
2023-03-18T16:35:23.245Z,13.37
2023-03-18T16:37:52.013Z,13.26
2023-03-18T16:40:21.499Z,13.17
2023-03-18T16:42:49.588Z,13.06
2023-03-18T16:45:18.581Z,12.94
2023-03-18T16:47:47.658Z,12.83
2023-03-18T16:50:16.033Z,12.72
2023-03-18T16:52:44.884Z,12.62
2023-03-18T16:55:17.819Z,12.53
2023-03-18T16:57:58.765Z,12.43
2023-03-18T17:00:32.162Z,12.34
2023-03-18T17:03:01.589Z,12.26
2023-03-18T17:05:29.619Z,12.19
2023-03-18T17:07:57.616Z,12.13
2023-03-18T17:10:26.384Z,12.06
2023-03-18T17:12:59.699Z,12.00
2023-03-18T17:15:33.082Z,11.95
2023-03-18T17:18:01.819Z,11.89
2023-03-18T17:20:32.524Z,11.85
2023-03-18T17:23:01.200Z,11.79
2023-03-18T17:25:30.446Z,11.73
2023-03-18T17:28:00.051Z,11.65
2023-03-18T17:30:34.020Z,11.55
2023-03-18T17:33:03.570Z,11.44
2023-03-18T17:35:32.339Z,11.33
2023-03-18T17:38:00.915Z,11.22
2023-03-18T17:40:30.518Z,11.13
2023-03-18T17:42:59.007Z,11.03
2023-03-18T17:45:34.529Z,10.94
2023-03-18T17:48:22.728Z,10.84
2023-03-18T17:50:52.222Z,10.74
2023-03-18T17:53:31.584Z,10.68
2023-03-18T17:55:59.715Z,10.59
2023-03-18T17:58:29.245Z,10.51
2023-03-18T18:01:17.848Z,10.46
2023-03-18T18:03:47.734Z,10.38
2023-03-18T18:06:17.810Z,10.31
2023-03-18T18:08:46.050Z,10.23
2023-03-18T18:11:14.808Z,10.14
2023-03-18T18:13:43.953Z,10.07
2023-03-18T18:16:12.275Z,10.00
2023-03-18T18:18:40.226Z,9.93
2023-03-18T18:21:19.817Z,9.85
2023-03-18T18:23:48.797Z,9.75
2023-03-18T18:26:18.538Z,9.66
2023-03-18T18:28:48.289Z,9.57
2023-03-18T18:31:17.853Z,9.49
2023-03-18T18:33:46.783Z,9.42
2023-03-18T18:36:16.741Z,9.35
2023-03-18T18:38:44.624Z,9.30
2023-03-18T18:41:13.134Z,9.25
2023-03-18T18:43:41.295Z,9.21
2023-03-18T18:46:13.037Z,9.16
2023-03-18T18:48:41.478Z,9.12
2023-03-18T18:51:15.035Z,9.07
2023-03-18T18:53:43.593Z,9.00
2023-03-18T18:56:14.626Z,8.95
2023-03-18T18:58:42.958Z,8.89
2023-03-18T19:01:12.829Z,8.84
2023-03-18T19:03:42.144Z,8.79
2023-03-18T19:06:25.738Z,8.74
2023-03-18T19:08:55.365Z,8.68
2023-03-18T19:11:24.816Z,8.64
2023-03-18T19:13:55.190Z,8.59
2023-03-18T19:16:23.687Z,8.54
2023-03-18T19:18:51.717Z,8.49
2023-03-18T19:21:19.699Z,8.45
2023-03-18T19:23:48.981Z,8.40
2023-03-18T19:26:18.366Z,8.38
2023-03-18T19:28:57.161Z,8.35
2023-03-18T19:31:30.729Z,8.31
2023-03-18T19:33:59.677Z,8.27
2023-03-18T19:36:32.357Z,8.24
2023-03-18T19:39:01.957Z,8.20
2023-03-18T19:41:30.499Z,8.17
2023-03-18T19:44:04.173Z,8.13
2023-03-18T19:46:38.543Z,8.10
2023-03-18T19:49:26.878Z,8.07
2023-03-18T19:51:55.160Z,8.03
2023-03-18T19:54:27.282Z,7.98
2023-03-18T19:56:57.680Z,7.94
2023-03-18T19:59:37.474Z,7.90
2023-03-18T20:02:19.031Z,7.87
2023-03-18T20:04:49.568Z,7.86
2023-03-18T20:07:19.603Z,7.83
2023-03-18T20:09:48.763Z,7.77
2023-03-18T20:12:23.026Z,7.71
2023-03-18T20:14:52.867Z,7.66
2023-03-18T20:17:24.397Z,7.64
2023-03-18T20:19:54.029Z,7.63
2023-03-18T20:22:24.113Z,7.61
2023-03-18T20:24:53.586Z,7.58
2023-03-18T20:27:22.560Z,7.54
2023-03-18T20:29:51.420Z,7.50
2023-03-18T20:32:19.477Z,7.47
2023-03-18T20:34:48.521Z,7.42
2023-03-18T20:37:32.621Z,7.36
2023-03-18T20:40:01.882Z,7.28
2023-03-18T20:42:30.431Z,7.22
2023-03-18T20:44:58.435Z,7.19
2023-03-18T20:47:27.564Z,7.17
2023-03-18T20:49:56.313Z,7.16
2023-03-18T20:52:30.292Z,7.14
2023-03-18T20:54:58.763Z,7.12
2023-03-18T20:57:27.924Z,7.09
2023-03-18T20:59:57.651Z,7.04
2023-03-18T21:02:26.912Z,6.97
2023-03-18T21:04:55.747Z,6.93
2023-03-18T21:07:24.536Z,6.89
2023-03-18T21:09:52.560Z,6.86
2023-03-18T21:12:22.618Z,6.84
2023-03-18T21:14:51.956Z,6.80
2023-03-18T21:17:21.071Z,6.78
2023-03-18T21:19:50.291Z,6.73
2023-03-18T21:22:21.595Z,6.71
2023-03-18T21:24:49.802Z,6.69
2023-03-18T21:27:23.254Z,6.66
2023-03-18T21:29:52.152Z,6.62
2023-03-18T21:32:20.747Z,6.60
2023-03-18T21:34:50.419Z,6.57
2023-03-18T21:37:20.513Z,6.50
2023-03-18T21:39:49.759Z,6.43
2023-03-18T21:42:26.860Z,6.38
2023-03-18T21:44:56.547Z,6.31
2023-03-18T21:47:26.413Z,6.26
2023-03-18T21:49:54.487Z,6.23
2023-03-18T21:52:39.882Z,6.20
2023-03-18T21:55:12.317Z,6.15
2023-03-18T21:57:40.343Z,6.11
2023-03-18T22:00:09.193Z,6.08
2023-03-18T22:02:39.656Z,6.06
2023-03-18T22:05:12.252Z,6.03
2023-03-18T22:07:40.167Z,6.00
2023-03-18T22:10:08.428Z,5.97
2023-03-18T22:12:37.745Z,5.93
2023-03-18T22:15:26.519Z,5.90
2023-03-18T22:17:54.499Z,5.88
2023-03-18T22:20:23.381Z,5.85
2023-03-18T22:22:53.070Z,5.80
2023-03-18T22:25:34.961Z,5.75
2023-03-18T22:28:03.561Z,5.71
2023-03-18T22:30:33.274Z,5.69
2023-03-18T22:33:02.398Z,5.67
2023-03-18T22:35:30.433Z,5.65
2023-03-18T22:37:58.489Z,5.63
2023-03-18T22:40:28.252Z,5.62
2023-03-18T22:42:58.452Z,5.59
2023-03-18T22:45:30.763Z,5.58
2023-03-18T22:48:01.594Z,5.55
2023-03-18T22:50:31.562Z,5.51
2023-03-18T22:53:01.611Z,5.45
2023-03-18T22:55:33.856Z,5.42
2023-03-18T22:58:02.145Z,5.38
2023-03-18T23:00:40.903Z,5.34
2023-03-18T23:03:12.936Z,5.31
2023-03-18T23:05:41.163Z,5.29
2023-03-18T23:08:09.563Z,5.27
2023-03-18T23:10:37.942Z,5.26
2023-03-18T23:13:26.886Z,5.23
2023-03-18T23:15:54.912Z,5.17
2023-03-18T23:18:23.820Z,5.13
2023-03-18T23:20:52.056Z,5.09
2023-03-18T23:23:21.735Z,5.06
2023-03-18T23:25:51.229Z,5.04
2023-03-18T23:28:19.379Z,5.01
2023-03-18T23:30:49.176Z,5.00
2023-03-18T23:33:18.519Z,4.99
2023-03-18T23:35:47.498Z,4.98
2023-03-18T23:38:16.169Z,4.96
2023-03-18T23:40:44.614Z,4.94
2023-03-18T23:43:12.537Z,4.90
2023-03-18T23:45:40.594Z,4.87
2023-03-18T23:48:08.684Z,4.86
2023-03-18T23:50:36.575Z,4.81
2023-03-18T23:53:04.455Z,4.78
2023-03-18T23:55:34.984Z,4.74
2023-03-18T23:58:03.888Z,4.72
